Time;durP1;ratioP1;P1;durP2;ratioP2;P2;SDS_P1;SDS_P2;PMS_P1;PMS_P2;Temp;Humidity;BMP_temperature;BMP_pressure;BME280_temperature;BME280_humidity;BME280_pressure;Samples;Min_cycle;Max_cycle;Signal;HPM_P1;HPM_P2
2021/10/16 00:00:06;;;;;;;23.92;10.02;;;3.80;99.90;;;;;;5074797;28;20446;-66
2021/10/16 00:02:31;;;;;;;20.05;9.38;;;3.70;99.90;;;;;;5075798;28;20123;-66
2021/10/16 00:04:57;;;;;;;18.98;10.02;;;3.70;99.90;;;;;;5075694;28;20071;-67
2021/10/16 00:07:22;;;;;;;21.05;10.20;;;3.70;99.90;;;;;;5075368;28;20028;-67
2021/10/16 00:09:48;;;;;;;18.15;9.98;;;3.60;99.90;;;;;;5075232;28;20105;-66
2021/10/16 00:12:13;;;;;;;13.48;9.73;;;3.60;99.90;;;;;;5091456;28;20017;-66
2021/10/16 00:14:39;;;;;;;22.20;10.68;;;3.60;99.90;;;;;;5075497;28;20025;-67
2021/10/16 00:17:05;;;;;;;22.10;11.23;;;3.60;99.90;;;;;;5075176;28;20033;-66
2021/10/16 00:19:30;;;;;;;21.95;11.55;;;3.60;99.90;;;;;;5075422;28;20037;-66
2021/10/16 00:21:56;;;;;;;18.80;10.52;;;3.50;99.90;;;;;;5075088;28;20090;-66
2021/10/16 00:24:21;;;;;;;19.52;11.60;;;3.50;99.90;;;;;;5075261;28;20032;-67
2021/10/16 00:26:47;;;;;;;17.27;10.70;;;3.50;99.90;;;;;;5075228;28;20058;-67
2021/10/16 00:29:12;;;;;;;26.92;11.60;;;3.50;99.90;;;;;;5075114;28;20111;-66
2021/10/16 00:31:38;;;;;;;22.08;11.68;;;3.50;99.90;;;;;;5074860;28;20031;-66
2021/10/16 00:34:03;;;;;;;18.92;11.00;;;3.50;99.90;;;;;;5073686;28;20027;-67
2021/10/16 00:36:29;;;;;;;22.27;11.60;;;3.50;99.90;;;;;;5074043;28;20032;-66
2021/10/16 00:38:54;;;;;;;22.88;12.02;;;3.50;99.90;;;;;;5075005;28;20024;-67
2021/10/16 00:41:20;;;;;;;33.42;14.45;;;3.50;99.90;;;;;;5073959;28;20414;-66
2021/10/16 00:43:46;;;;;;;26.05;12.63;;;3.50;99.90;;;;;;5074761;28;20090;-66
2021/10/16 00:46:12;;;;;;;24.23;12.15;;;3.50;99.90;;;;;;5073343;28;20024;-66
2021/10/16 00:48:37;;;;;;;24.50;13.95;;;3.50;99.90;;;;;;5074553;28;20021;-66
2021/10/16 00:51:03;;;;;;;28.40;13.57;;;3.50;99.90;;;;;;5074020;28;20550;-66
2021/10/16 00:53:28;;;;;;;23.48;13.32;;;3.50;99.90;;;;;;5074747;28;20024;-67
2021/10/16 00:55:54;;;;;;;31.02;13.73;;;3.50;99.90;;;;;;5074446;28;20016;-66
2021/10/16 00:58:22;;;;;;;27.27;13.45;;;3.50;99.90;;;;;;5074680;28;20024;-66
2021/10/16 01:00:48;;;;;;;22.48;12.50;;;3.50;99.90;;;;;;5089725;28;20027;-66
2021/10/16 01:03:13;;;;;;;22.98;12.43;;;3.50;99.90;;;;;;5072746;28;20424;-66
2021/10/16 01:05:39;;;;;;;22.95;12.75;;;3.50;99.90;;;;;;5074544;28;20377;-66
2021/10/16 01:08:10;;;;;;;22.25;11.93;;;3.40;99.90;;;;;;5074489;28;20039;-66
2021/10/16 01:10:35;;;;;;;28.58;13.43;;;3.40;99.90;;;;;;5074409;28;20025;-66
2021/10/16 01:13:01;;;;;;;26.58;12.45;;;3.40;99.90;;;;;;5074423;28;20512;-66
2021/10/16 01:15:27;;;;;;;21.13;11.68;;;3.40;99.90;;;;;;5074102;28;20033;-67
2021/10/16 01:17:53;;;;;;;22.35;12.00;;;3.40;99.90;;;;;;5074376;28;20052;-67
2021/10/16 01:20:22;;;;;;;23.05;12.95;;;3.50;99.90;;;;;;5074048;28;20073;-66
2021/10/16 01:22:49;;;;;;;24.98;12.45;;;3.50;99.90;;;;;;5074328;28;20122;-66
2021/10/16 01:25:18;;;;;;;24.58;12.45;;;3.50;99.90;;;;;;5089337;28;20138;-67
2021/10/16 01:27:44;;;;;;;24.42;12.23;;;3.50;99.90;;;;;;5074246;28;20021;-66
2021/10/16 01:30:13;;;;;;;27.25;12.52;;;3.60;99.90;;;;;;5074134;28;20032;-67
2021/10/16 01:32:39;;;;;;;26.15;12.85;;;3.60;99.90;;;;;;5073916;28;20021;-67
2021/10/16 01:35:08;;;;;;;21.42;12.45;;;3.60;99.90;;;;;;5072697;28;20532;-67
2021/10/16 01:37:34;;;;;;;23.60;12.43;;;3.70;99.90;;;;;;5073855;28;20020;-67
2021/10/16 01:39:59;;;;;;;23.67;12.50;;;3.70;99.90;;;;;;5074100;28;20528;-66
2021/10/16 01:42:25;;;;;;;26.88;12.90;;;3.70;99.90;;;;;;5074059;28;20058;-67
2021/10/16 01:44:51;;;;;;;21.95;11.63;;;3.70;99.90;;;;;;5073607;28;20050;-66
2021/10/16 01:47:16;;;;;;;22.92;12.40;;;3.80;99.90;;;;;;5074020;28;20071;-67
2021/10/16 01:49:42;;;;;;;31.48;13.13;;;3.80;99.90;;;;;;5073473;28;20044;-67
2021/10/16 01:52:07;;;;;;;31.92;13.43;;;3.90;99.90;;;;;;5073940;28;20112;-67
2021/10/16 01:54:33;;;;;;;25.15;11.70;;;3.90;99.90;;;;;;5073961;28;20074;-67
2021/10/16 01:56:58;;;;;;;24.55;12.77;;;4.00;99.90;;;;;;5072494;28;20367;-67
2021/10/16 01:59:26;;;;;;;29.05;13.57;;;4.00;99.90;;;;;;5073620;28;20023;-66
2021/10/16 02:01:54;;;;;;;29.67;12.77;;;4.10;99.90;;;;;;5073636;28;20025;-66
2021/10/16 02:04:20;;;;;;;28.30;12.90;;;4.10;99.90;;;;;;5073882;28;20020;-66
2021/10/16 02:06:46;;;;;;;21.30;12.45;;;4.20;99.90;;;;;;5055835;28;20374;-67
2021/10/16 02:09:12;;;;;;;26.80;12.65;;;4.30;99.90;;;;;;5073406;28;20028;-67
2021/10/16 02:11:38;;;;;;;21.05;11.30;;;4.40;99.90;;;;;;5073787;28;20027;-67
2021/10/16 02:14:05;;;;;;;27.95;13.32;;;4.40;99.90;;;;;;5073765;28;20017;-67
2021/10/16 02:16:31;;;;;;;35.13;14.40;;;4.50;99.90;;;;;;5073790;28;20017;-67
2021/10/16 02:18:57;;;;;;;34.40;14.07;;;4.50;99.90;;;;;;5073681;28;20044;-66
2021/10/16 02:21:23;;;;;;;38.75;15.13;;;4.60;99.90;;;;;;5073654;28;20036;-67
2021/10/16 02:23:49;;;;;;;28.73;13.25;;;4.60;99.90;;;;;;5072530;28;20111;-67
2021/10/16 02:26:15;;;;;;;32.75;13.30;;;4.70;99.90;;;;;;5073650;28;20024;-67
2021/10/16 02:28:41;;;;;;;31.42;13.30;;;4.70;99.90;;;;;;5073377;28;20119;-67
2021/10/16 02:31:07;;;;;;;23.52;12.77;;;4.80;99.90;;;;;;5073507;28;20477;-66
2021/10/16 02:33:32;;;;;;;35.10;13.70;;;4.80;99.90;;;;;;5072131;28;20032;-67
2021/10/16 02:35:58;;;;;;;29.65;12.68;;;4.90;99.90;;;;;;5073253;28;20024;-66
2021/10/16 02:38:23;;;;;;;29.70;13.52;;;4.80;99.90;;;;;;5073507;28;20104;-67
2021/10/16 02:40:49;;;;;;;28.88;13.68;;;4.90;99.90;;;;;;5073235;28;20378;-66
2021/10/16 02:43:14;;;;;;;32.72;14.13;;;5.00;99.90;;;;;;5073186;28;20043;-67
2021/10/16 02:45:40;;;;;;;32.22;14.43;;;5.00;99.90;;;;;;5072024;28;20047;-67
2021/10/16 02:48:05;;;;;;;36.33;14.77;;;5.10;99.90;;;;;;5073153;28;20464;-67
2021/10/16 02:50:31;;;;;;;35.75;15.85;;;5.10;99.90;;;;;;5071310;28;20048;-67
2021/10/16 02:52:57;;;;;;;30.98;14.82;;;5.10;99.90;;;;;;5073109;28;20056;-67
2021/10/16 02:55:22;;;;;;;28.95;13.05;;;5.10;99.90;;;;;;5073372;28;20446;-67
2021/10/16 02:57:48;;;;;;;24.00;12.43;;;5.10;99.90;;;;;;5073888;28;20056;-67
2021/10/16 03:00:14;;;;;;;27.90;13.27;;;5.10;99.90;;;;;;5076348;28;20031;-67
2021/10/16 03:02:39;;;;;;;22.33;11.85;;;5.00;99.90;;;;;;5076360;28;20024;-67
2021/10/16 03:05:06;;;;;;;26.52;13.55;;;5.00;99.90;;;;;;5076867;28;20078;-67
2021/10/16 03:07:32;;;;;;;31.45;14.63;;;5.10;99.90;;;;;;5091912;28;20043;-67
2021/10/16 03:09:57;;;;;;;34.78;14.13;;;5.10;99.90;;;;;;5076394;28;20028;-67
2021/10/16 03:12:23;;;;;;;32.88;15.35;;;5.10;99.90;;;;;;5076725;28;20078;-67
2021/10/16 03:14:49;;;;;;;28.20;13.18;;;5.10;99.90;;;;;;5076719;28;20020;-67
2021/10/16 03:17:15;;;;;;;39.80;15.73;;;5.10;99.90;;;;;;5076505;28;20371;-67
2021/10/16 03:19:40;;;;;;;40.92;14.50;;;5.20;99.90;;;;;;5076583;28;20029;-67
2021/10/16 03:22:08;;;;;;;38.00;14.43;;;5.20;99.90;;;;;;5074765;28;20031;-67
2021/10/16 03:24:34;;;;;;;28.10;13.85;;;5.20;99.90;;;;;;5076261;28;20020;-67
2021/10/16 03:27:00;;;;;;;28.10;14.07;;;5.20;99.90;;;;;;5075935;28;20082;-68
2021/10/16 03:29:25;;;;;;;39.42;15.75;;;5.20;99.90;;;;;;5074551;28;20028;-67
2021/10/16 03:31:51;;;;;;;38.42;15.32;;;5.30;99.90;;;;;;5075175;28;20359;-67
2021/10/16 03:34:17;;;;;;;35.70;15.48;;;5.30;99.90;;;;;;5074552;28;20425;-67
2021/10/16 03:36:42;;;;;;;35.47;14.52;;;5.30;99.90;;;;;;5076283;28;20078;-67
2021/10/16 03:39:08;;;;;;;34.15;14.60;;;5.30;99.90;;;;;;5076226;28;20476;-66
2021/10/16 03:41:33;;;;;;;36.67;14.07;;;5.40;99.90;;;;;;5076196;28;20029;-66
2021/10/16 03:43:59;;;;;;;31.77;14.52;;;5.40;99.90;;;;;;5076116;28;20037;-67
2021/10/16 03:46:24;;;;;;;41.17;14.70;;;5.40;99.90;;;;;;5076102;28;20077;-67
2021/10/16 03:48:50;;;;;;;27.50;13.02;;;5.40;99.90;;;;;;5075696;28;20029;-67
2021/10/16 03:51:15;;;;;;;31.35;12.80;;;5.40;99.90;;;;;;5074098;28;20440;-67
2021/10/16 03:53:41;;;;;;;31.80;14.18;;;5.40;99.90;;;;;;5075668;28;20025;-67
2021/10/16 03:56:06;;;;;;;28.92;13.27;;;5.40;99.90;;;;;;5075637;28;20027;-66
2021/10/16 03:58:32;;;;;;;34.40;13.13;;;5.40;99.90;;;;;;5075842;28;20048;-67
2021/10/16 04:01:01;;;;;;;34.13;13.00;;;5.40;99.90;;;;;;5075808;28;20500;-67
2021/10/16 04:03:27;;;;;;;41.25;13.85;;;5.40;99.90;;;;;;5075752;28;20017;-67
2021/10/16 04:05:53;;;;;;;36.28;13.52;;;5.50;99.90;;;;;;5073897;28;20074;-67
2021/10/16 04:08:18;;;;;;;35.92;13.40;;;5.50;99.90;;;;;;5075667;28;20476;-67
2021/10/16 04:10:45;;;;;;;23.60;12.45;;;5.40;99.90;;;;;;5075505;28;20126;-67
2021/10/16 04:13:11;;;;;;;23.42;12.65;;;5.50;99.90;;;;;;5075572;28;20067;-66
2021/10/16 04:15:37;;;;;;;40.33;13.98;;;5.50;99.90;;;;;;5075262;28;20048;-67
2021/10/16 04:18:02;;;;;;;37.63;13.40;;;5.60;99.90;;;;;;5074936;28;20020;-67
2021/10/16 04:20:28;;;;;;;42.67;13.35;;;5.60;99.90;;;;;;5075471;28;20055;-67
2021/10/16 04:22:54;;;;;;;33.60;13.20;;;5.60;99.90;;;;;;5075322;28;20035;-67
2021/10/16 04:25:19;;;;;;;31.27;13.13;;;5.60;99.90;;;;;;5075304;28;20063;-67
2021/10/16 04:27:45;;;;;;;27.33;12.27;;;5.70;99.90;;;;;;5075233;28;20039;-66
2021/10/16 04:30:10;;;;;;;31.75;13.07;;;5.70;99.90;;;;;;5074878;28;20029;-66
2021/10/16 04:32:36;;;;;;;26.38;12.57;;;5.70;99.90;;;;;;5075175;28;20051;-67
2021/10/16 04:35:04;;;;;;;41.17;15.07;;;5.70;99.90;;;;;;5075071;28;20047;-67
2021/10/16 04:37:30;;;;;;;23.10;12.20;;;5.70;99.90;;;;;;5075100;28;20020;-67
2021/10/16 04:39:55;;;;;;;29.83;12.32;;;5.70;99.90;;;;;;5073828;28;20032;-67
2021/10/16 04:42:21;;;;;;;30.65;13.50;;;5.80;99.90;;;;;;5074994;28;20469;-67
2021/10/16 04:44:46;;;;;;;27.23;12.55;;;5.70;99.90;;;;;;5074378;28;20103;-67
2021/10/16 04:47:12;;;;;;;30.50;13.10;;;5.70;99.90;;;;;;5074914;28;20028;-67
2021/10/16 04:49:38;;;;;;;27.75;12.20;;;5.70;99.90;;;;;;5072789;28;20078;-67
2021/10/16 04:52:05;;;;;;;40.65;16.25;;;5.60;99.90;;;;;;5074513;28;20024;-68
2021/10/16 04:54:31;;;;;;;39.85;16.35;;;5.60;99.90;;;;;;5074482;28;20017;-68
2021/10/16 04:56:56;;;;;;;38.28;16.23;;;5.60;99.90;;;;;;5074421;28;20074;-68
2021/10/16 04:59:22;;;;;;;26.80;13.63;;;5.50;99.90;;;;;;5074685;28;20029;-68
2021/10/16 05:01:47;;;;;;;34.50;14.48;;;5.50;99.90;;;;;;5074612;28;20501;-67
2021/10/16 05:04:13;;;;;;;24.52;13.10;;;5.50;99.90;;;;;;5074573;28;20099;-68
2021/10/16 05:06:38;;;;;;;33.65;14.13;;;5.40;99.90;;;;;;5074530;28;20016;-67
2021/10/16 05:09:04;;;;;;;34.92;14.27;;;5.40;99.90;;;;;;5073062;28;20078;-67
2021/10/16 05:11:30;;;;;;;34.13;14.45;;;5.50;99.90;;;;;;5074134;28;20025;-68
2021/10/16 05:13:55;;;;;;;34.95;15.88;;;5.50;99.90;;;;;;5074125;28;20370;-68
2021/10/16 05:16:21;;;;;;;37.38;18.48;;;5.50;99.90;;;;;;5072975;28;20024;-68
2021/10/16 05:18:46;;;;;;;36.35;16.35;;;5.50;99.90;;;;;;5072523;28;20012;-67
2021/10/16 05:21:13;;;;;;;43.95;17.42;;;5.60;99.90;;;;;;5073926;28;20119;-67
2021/10/16 05:23:44;;;;;;;30.92;15.43;;;5.60;99.90;;;;;;5074110;28;20024;-67
2021/10/16 05:26:10;;;;;;;38.55;17.55;;;5.60;99.90;;;;;;5073729;28;20074;-67
2021/10/16 05:28:35;;;;;;;36.25;16.25;;;5.60;99.90;;;;;;5073920;28;20028;-67
2021/10/16 05:31:01;;;;;;;35.33;15.90;;;5.60;99.90;;;;;;5074093;28;20043;-67
2021/10/16 05:33:26;;;;;;;37.70;17.33;;;5.70;99.90;;;;;;5074157;28;20024;-67
2021/10/16 05:35:52;;;;;;;36.35;18.60;;;5.70;99.90;;;;;;5073872;28;20025;-67
2021/10/16 05:38:17;;;;;;;41.08;19.13;;;5.70;99.90;;;;;;5074120;28;20028;-68
2021/10/16 05:40:43;;;;;;;35.92;19.02;;;5.70;99.90;;;;;;5073801;28;20132;-68
2021/10/16 05:43:09;;;;;;;39.45;21.25;;;5.70;99.90;;;;;;5073806;28;20029;-67
2021/10/16 05:45:34;;;;;;;37.88;21.17;;;5.70;99.90;;;;;;5074030;28;20028;-66
2021/10/16 05:48:00;;;;;;;48.60;23.05;;;5.80;99.90;;;;;;5073746;28;20037;-67
2021/10/16 05:50:25;;;;;;;43.25;24.35;;;5.80;99.90;;;;;;5073358;28;20045;-67
2021/10/16 05:52:51;;;;;;;43.85;23.30;;;5.80;99.90;;;;;;5072499;28;20377;-67
2021/10/16 05:55:16;;;;;;;40.13;23.42;;;5.80;99.90;;;;;;5073681;28;20027;-68
2021/10/16 05:57:42;;;;;;;39.05;20.05;;;5.80;99.90;;;;;;5073893;28;20031;-67
2021/10/16 06:00:08;;;;;;;46.83;22.52;;;5.90;99.90;;;;;;5073330;28;20056;-67
2021/10/16 06:02:34;;;;;;;31.75;19.42;;;5.90;99.90;;;;;;5073887;28;20028;-67
2021/10/16 06:04:59;;;;;;;34.88;20.48;;;5.90;99.90;;;;;;5073837;28;20351;-67
2021/10/16 06:07:25;;;;;;;37.08;20.60;;;5.90;99.90;;;;;;5073507;28;20422;-67
2021/10/16 06:09:50;;;;;;;42.25;19.40;;;6.00;99.90;;;;;;5073686;28;20029;-67
2021/10/16 06:12:16;;;;;;;40.28;19.67;;;6.00;99.90;;;;;;5073744;28;20096;-67
2021/10/16 06:14:42;;;;;;;41.05;20.85;;;5.90;99.90;;;;;;5072259;28;20027;-67
2021/10/16 06:17:08;;;;;;;45.97;19.65;;;6.00;99.90;;;;;;5073719;28;20462;-68
2021/10/16 06:19:33;;;;;;;31.33;18.17;;;6.00;99.90;;;;;;5073602;28;20032;-67
2021/10/16 06:21:59;;;;;;;37.72;17.88;;;6.00;99.90;;;;;;5073579;28;20108;-67
2021/10/16 06:24:24;;;;;;;39.30;18.40;;;6.10;99.90;;;;;;5073595;28;20031;-67
2021/10/16 06:26:50;;;;;;;33.10;17.63;;;6.10;99.90;;;;;;5073022;28;20493;-67
2021/10/16 06:29:16;;;;;;;42.08;18.20;;;6.10;99.90;;;;;;5073053;28;20112;-67
2021/10/16 06:31:41;;;;;;;41.65;17.25;;;6.20;99.90;;;;;;5073109;28;20028;-67
2021/10/16 06:34:07;;;;;;;32.28;15.68;;;6.20;99.90;;;;;;5077386;28;20021;-68
2021/10/16 06:36:33;;;;;;;25.90;14.65;;;6.20;99.90;;;;;;5077353;28;20397;-68
2021/10/16 06:38:59;;;;;;;31.70;12.60;;;6.30;99.90;;;;;;5077245;28;20477;-68
2021/10/16 06:41:25;;;;;;;31.38;12.35;;;6.30;99.90;;;;;;5077239;28;20028;-68
2021/10/16 06:43:50;;;;;;;32.05;11.80;;;6.30;99.90;;;;;;5076945;28;20181;-68
2021/10/16 06:46:16;;;;;;;29.02;11.27;;;6.40;99.90;;;;;;5076818;28;20029;-67
2021/10/16 06:48:41;;;;;;;23.45;11.25;;;6.40;99.90;;;;;;5077102;28;20539;-68
2021/10/16 06:51:07;;;;;;;22.15;11.20;;;6.40;99.90;;;;;;5076285;28;20045;-67
2021/10/16 06:53:33;;;;;;;27.90;11.07;;;6.50;99.90;;;;;;5077023;28;20020;-67
2021/10/16 06:55:59;;;;;;;27.35;11.23;;;6.50;99.90;;;;;;5075581;28;20075;-68
2021/10/16 06:58:24;;;;;;;27.63;11.20;;;6.50;99.90;;;;;;5076668;28;20024;-67
2021/10/16 07:00:50;;;;;;;29.70;11.52;;;6.60;99.90;;;;;;5076886;28;20028;-68
2021/10/16 07:03:15;;;;;;;27.95;12.10;;;6.70;99.90;;;;;;5076552;28;20031;-68
2021/10/16 07:05:41;;;;;;;27.30;12.10;;;6.70;99.90;;;;;;5075444;28;20036;-67
2021/10/16 07:08:07;;;;;;;29.45;13.10;;;6.70;99.90;;;;;;5076792;28;20032;-65
2021/10/16 07:10:33;;;;;;;37.90;14.73;;;6.80;99.90;;;;;;5076349;28;20462;-67
2021/10/16 07:13:03;;;;;;;31.05;15.00;;;6.90;99.90;;;;;;5076675;28;20021;-67
2021/10/16 07:15:29;;;;;;;33.60;13.93;;;6.80;99.90;;;;;;5076660;28;20012;-67
2021/10/16 07:17:55;;;;;;;36.28;15.27;;;6.80;99.90;;;;;;5076587;28;20032;-67
2021/10/16 07:20:20;;;;;;;32.35;13.88;;;6.90;99.90;;;;;;5076541;28;20421;-67
2021/10/16 07:22:46;;;;;;;24.38;13.30;;;7.00;99.90;;;;;;5076517;28;20024;-68
2021/10/16 07:25:12;;;;;;;32.30;14.23;;;7.00;99.90;;;;;;5076205;28;20025;-67
2021/10/16 07:27:38;;;;;;;28.42;12.95;;;7.00;99.90;;;;;;5074957;28;20059;-67
2021/10/16 07:30:05;;;;;;;28.67;13.15;;;7.10;99.90;;;;;;5091919;28;20081;-67
2021/10/16 07:32:30;;;;;;;36.72;13.95;;;7.20;99.90;;;;;;5076337;28;20021;-67
2021/10/16 07:34:56;;;;;;;31.30;13.43;;;7.30;99.90;;;;;;5076014;28;20028;-68
2021/10/16 07:37:21;;;;;;;29.92;13.55;;;7.30;99.90;;;;;;5075993;28;20035;-67
2021/10/16 07:39:47;;;;;;;33.15;14.30;;;7.40;99.90;;;;;;5074690;28;20382;-68
2021/10/16 07:42:12;;;;;;;31.23;16.00;;;7.40;99.90;;;;;;5076161;28;20035;-67
2021/10/16 07:44:38;;;;;;;25.88;14.95;;;7.50;99.90;;;;;;5075486;28;20035;-68
2021/10/16 07:47:04;;;;;;;32.58;14.32;;;7.50;99.90;;;;;;5074211;28;20024;-67
2021/10/16 07:49:30;;;;;;;25.60;13.85;;;7.50;99.90;;;;;;5075584;28;20040;-68
2021/10/16 07:51:55;;;;;;;33.95;13.45;;;7.70;99.90;;;;;;5075617;28;20103;-68
2021/10/16 07:54:21;;;;;;;33.03;14.27;;;7.80;99.90;;;;;;5075368;28;20107;-69
2021/10/16 07:56:47;;;;;;;26.45;13.38;;;7.90;99.90;;;;;;5075618;28;20082;-68
2021/10/16 07:59:13;;;;;;;26.38;13.40;;;8.00;99.90;;;;;;5075820;28;20374;-68
2021/10/16 08:01:39;;;;;;;26.75;14.02;;;8.00;99.90;;;;;;5075476;28;20027;-68
2021/10/16 08:04:04;;;;;;;28.80;13.57;;;8.10;99.90;;;;;;5075218;28;20020;-68
2021/10/16 08:06:30;;;;;;;29.00;13.75;;;8.10;99.90;;;;;;5075665;28;20028;-68
2021/10/16 08:08:55;;;;;;;32.65;13.60;;;8.10;99.90;;;;;;5075594;28;20029;-68
2021/10/16 08:11:21;;;;;;;36.53;15.60;;;8.20;99.90;;;;;;5074906;28;20033;-69
2021/10/16 08:13:47;;;;;;;35.67;15.20;;;8.30;99.90;;;;;;5075519;28;20065;-68
2021/10/16 08:16:12;;;;;;;32.08;15.15;;;8.30;99.90;;;;;;5075467;28;20017;-68
2021/10/16 08:18:38;;;;;;;28.58;14.70;;;8.30;99.90;;;;;;5075370;28;20380;-69
2021/10/16 08:21:03;;;;;;;33.97;14.95;;;8.60;99.90;;;;;;5075293;28;20029;-68
2021/10/16 08:23:31;;;;;;;32.47;14.88;;;8.70;99.90;;;;;;5075260;28;20075;-68
2021/10/16 08:25:59;;;;;;;32.42;14.55;;;8.80;99.90;;;;;;5075254;28;20078;-69
2021/10/16 08:28:28;;;;;;;25.40;13.02;;;9.00;99.90;;;;;;5075319;28;20031;-68
2021/10/16 08:30:54;;;;;;;24.02;13.60;;;9.20;99.90;;;;;;5074633;28;20519;-68
2021/10/16 08:33:22;;;;;;;23.77;13.73;;;9.30;99.90;;;;;;5075227;28;20063;-68
2021/10/16 08:35:48;;;;;;;26.08;13.68;;;9.20;99.90;;;;;;5074583;28;20028;-68
2021/10/16 08:38:14;;;;;;;34.65;14.50;;;9.30;99.90;;;;;;5075083;28;20027;-68
2021/10/16 08:40:41;;;;;;;30.70;14.10;;;9.50;99.90;;;;;;5074737;28;20103;-69
2021/10/16 08:43:07;;;;;;;34.15;14.95;;;9.50;99.90;;;;;;5074963;28;20374;-68
2021/10/16 08:45:34;;;;;;;27.83;14.90;;;9.60;99.90;;;;;;5074874;28;20031;-68
2021/10/16 08:48:03;;;;;;;27.02;14.18;;;9.40;99.90;;;;;;5056431;28;20456;-68
2021/10/16 08:50:30;;;;;;;31.05;13.70;;;9.50;99.90;;;;;;5074235;28;20041;-68
2021/10/16 08:52:55;;;;;;;30.63;14.57;;;9.50;99.90;;;;;;5074443;28;20374;-68
2021/10/16 08:55:21;;;;;;;24.95;13.35;;;9.50;99.90;;;;;;5073988;28;20039;-68
2021/10/16 08:57:47;;;;;;;31.95;14.93;;;9.40;99.90;;;;;;5056078;28;20021;-68
2021/10/16 09:00:52;;;;;;;28.13;13.70;;;9.30;99.90;;;;;;5074593;28;20525;-68
2021/10/16 09:03:25;;;;;;;30.52;14.05;;;9.30;99.90;;;;;;5074587;28;20044;-68
2021/10/16 09:06:15;;;;;;;30.65;13.10;;;9.30;99.90;;;;;;5074293;28;20020;-68
2021/10/16 09:09:04;;;;;;;33.97;13.95;;;9.40;99.90;;;;;;5074150;28;20056;-68
2021/10/16 09:14:11;;;;;;;26.33;12.27;;;9.60;99.90;;;;;;5112208;27;20401;-68
2021/10/16 09:16:43;;;;;;;29.33;11.55;;;11.70;99.90;;;;;;5111361;28;20038;-69
2021/10/16 09:19:30;;;;;;;24.50;12.00;;;12.50;99.90;;;;;;5111614;28;20020;-69
2021/10/16 09:22:01;;;;;;;22.38;11.48;;;13.50;99.90;;;;;;5111813;28;20026;-69
2021/10/16 09:24:30;;;;;;;25.13;12.57;;;13.10;99.90;;;;;;5111749;28;20462;-69
2021/10/16 09:26:59;;;;;;;36.80;12.85;;;13.10;99.90;;;;;;5111676;28;20457;-69
2021/10/16 09:29:28;;;;;;;29.77;12.13;;;12.90;99.90;;;;;;5111606;28;20023;-69
2021/10/16 09:31:56;;;;;;;34.33;13.07;;;13.20;99.90;;;;;;5111506;28;20481;-69
2021/10/16 09:34:40;;;;;;;30.30;12.32;;;13.00;99.90;;;;;;5111526;28;20074;-68
2021/10/16 09:37:08;;;;;;;26.55;12.07;;;12.70;99.90;;;;;;5110246;28;20053;-68
2021/10/16 09:39:36;;;;;;;29.02;12.45;;;12.20;99.90;;;;;;5109632;28;20051;-69
2021/10/16 09:42:02;;;;;;;29.08;12.38;;;11.90;99.90;;;;;;5111106;28;20023;-69
2021/10/16 09:44:30;;;;;;;29.25;11.85;;;11.60;99.90;;;;;;5111334;28;20081;-69
2021/10/16 09:47:02;;;;;;;28.95;11.55;;;11.50;99.90;;;;;;5111313;28;20035;-69
2021/10/16 09:49:34;;;;;;;28.95;11.35;;;11.50;99.90;;;;;;5111001;28;20407;-69
2021/10/16 09:52:00;;;;;;;26.90;11.13;;;11.30;99.90;;;;;;5109541;28;20372;-68
2021/10/16 09:54:27;;;;;;;25.40;11.40;;;11.20;99.90;;;;;;5110839;28;20062;-69
2021/10/16 09:56:54;;;;;;;29.33;11.23;;;11.10;99.90;;;;;;5109460;28;20457;-69
2021/10/16 09:59:20;;;;;;;24.25;11.10;;;11.20;99.90;;;;;;5110797;28;20354;-68
2021/10/16 10:01:46;;;;;;;29.38;11.02;;;11.30;99.90;;;;;;5110471;28;20034;-68
2021/10/16 10:04:14;;;;;;;23.73;10.60;;;11.50;99.90;;;;;;5110965;28;20043;-68
2021/10/16 10:06:41;;;;;;;31.15;11.30;;;11.60;99.90;;;;;;5110875;28;20016;-69
2021/10/16 10:09:06;;;;;;;31.38;12.52;;;11.80;99.90;;;;;;5110882;28;20042;-69
2021/10/16 10:11:34;;;;;;;27.15;12.15;;;11.70;99.90;;;;;;5108950;28;20477;-68
2021/10/16 10:14:02;;;;;;;31.73;12.35;;;11.70;99.90;;;;;;5108943;28;20059;-69
2021/10/16 10:16:30;;;;;;;23.35;10.85;;;11.60;99.90;;;;;;5110804;28;20488;-68
2021/10/16 10:19:00;;;;;;;33.58;11.48;;;11.80;99.90;;;;;;5110436;28;20020;-68
2021/10/16 10:21:33;;;;;;;25.17;10.25;;;11.90;99.90;;;;;;5110669;28;20465;-68
2021/10/16 10:24:00;;;;;;;24.00;10.90;;;11.80;99.90;;;;;;5105525;28;20028;-68
2021/10/16 10:26:36;;;;;;;23.58;9.02;;;12.10;99.90;;;;;;5097008;28;20081;-69
2021/10/16 10:29:05;;;;;;;21.15;9.30;;;12.40;99.90;;;;;;5095398;28;20073;-69
2021/10/16 10:31:55;;;;;;;19.42;7.93;;;12.60;99.90;;;;;;5096593;28;20039;-68
2021/10/16 10:34:28;;;;;;;23.65;9.23;;;12.80;99.90;;;;;;5096877;28;20028;-69
2021/10/16 10:37:06;;;;;;;24.88;8.77;;;12.70;99.90;;;;;;5095634;28;20028;-68
2021/10/16 10:44:55;;;;;;;17.33;7.95;;;12.70;99.90;;;;;;5091740;28;20825;-68
2021/10/16 10:47:34;;;;;;;22.13;8.23;;;12.80;99.90;;;;;;5091522;28;20032;-69
2021/10/16 10:50:03;;;;;;;24.13;8.95;;;12.60;99.90;;;;;;5090022;28;20020;-69
2021/10/16 10:55:52;;;;;;;22.92;7.85;;;13.10;99.90;;;;;;5091767;28;20349;-68
2021/10/16 10:58:19;;;;;;;22.52;8.43;;;13.30;99.90;;;;;;5090916;28;20021;-69
2021/10/16 11:00:46;;;;;;;18.92;7.45;;;13.10;99.90;;;;;;5091519;28;20029;-69
2021/10/16 11:06:15;;;;;;;17.77;6.35;;;13.40;99.90;;;;;;5112123;27;20288;-69
2021/10/16 11:08:40;;;;;;;18.77;6.40;;;13.50;99.90;;;;;;5111625;28;20016;-69
2021/10/16 11:11:07;;;;;;;19.10;6.25;;;13.50;99.90;;;;;;5110386;28;20518;-69
2021/10/16 11:13:35;;;;;;;27.42;7.28;;;13.20;99.90;;;;;;5110346;28;20453;-69
2021/10/16 11:16:03;;;;;;;18.45;6.93;;;13.20;99.90;;;;;;5111192;28;20115;-68
2021/10/16 11:18:29;;;;;;;21.98;6.68;;;13.30;99.90;;;;;;5092927;28;20023;-68
2021/10/16 11:21:00;;;;;;;18.85;6.22;;;13.50;99.90;;;;;;5111369;28;20430;-68
2021/10/16 11:23:26;;;;;;;19.67;5.95;;;13.50;99.90;;;;;;5111619;28;20028;-68
2021/10/16 11:25:57;;;;;;;14.80;5.60;;;13.70;99.90;;;;;;5111503;28;20381;-69
2021/10/16 11:28:23;;;;;;;13.20;4.93;;;14.20;99.90;;;;;;5111498;28;20042;-69
2021/10/16 11:30:49;;;;;;;15.05;5.13;;;14.40;99.90;;;;;;5111436;28;20027;-68
2021/10/16 11:33:17;;;;;;;13.75;4.10;;;14.30;99.90;;;;;;5110854;28;20054;-68
2021/10/16 11:35:45;;;;;;;15.55;4.22;;;14.40;99.90;;;;;;5109647;28;20058;-69
2021/10/16 11:38:13;;;;;;;13.77;3.78;;;14.60;99.90;;;;;;5111293;28;20365;-68
2021/10/16 11:40:39;;;;;;;12.20;3.15;;;14.30;99.90;;;;;;5110115;28;20380;-68
2021/10/16 11:43:11;;;;;;;9.07;2.88;;;13.90;99.90;;;;;;5110652;28;20377;-68
2021/10/16 11:45:38;;;;;;;11.90;3.47;;;13.70;99.90;;;;;;5111079;28;20377;-68
2021/10/16 11:48:06;;;;;;;15.57;3.78;;;13.60;99.90;;;;;;5110805;28;20472;-68
2021/10/16 11:50:35;;;;;;;12.25;3.30;;;13.60;99.90;;;;;;5111036;28;20020;-68
2021/10/16 11:53:14;;;;;;;9.82;2.90;;;13.60;99.90;;;;;;5110775;28;20035;-68
2021/10/16 11:55:47;;;;;;;11.18;2.25;;;13.40;99.90;;;;;;5111014;28;20047;-68
2021/10/16 11:58:16;;;;;;;9.98;2.50;;;13.20;99.90;;;;;;5110909;28;20023;-68
2021/10/16 12:00:44;;;;;;;12.70;2.80;;;13.10;99.90;;;;;;5110846;28;20027;-68
2021/10/16 12:03:14;;;;;;;10.70;2.28;;;13.20;99.90;;;;;;5110613;28;20062;-68
2021/10/16 12:05:42;;;;;;;10.35;2.58;;;13.30;99.90;;;;;;5110118;28;20047;-69
2021/10/16 12:08:26;;;;;;;10.80;3.13;;;13.50;99.90;;;;;;5109781;28;20404;-69
2021/10/16 12:10:53;;;;;;;;;;;13.60;99.90;;;;;;5111193;28;20023;-68
2021/10/16 12:13:28;;;;;;;11.50;2.85;;;13.70;99.90;;;;;;5110682;28;20372;-68
2021/10/16 12:15:54;;;;;;;10.00;2.83;;;13.70;99.90;;;;;;5105841;28;20432;-68
2021/10/16 12:18:24;;;;;;;15.32;2.75;;;13.80;99.90;;;;;;5096572;28;20358;-68
2021/10/16 12:20:54;;;;;;;11.55;3.95;;;13.90;99.90;;;;;;5096557;28;20024;-68
2021/10/16 12:23:21;;;;;;;11.48;2.85;;;14.10;99.90;;;;;;5096637;28;20100;-68
2021/10/16 12:25:52;;;;;;;13.80;4.75;;;13.90;99.90;;;;;;5095278;28;20024;-68
2021/10/16 12:28:19;;;;;;;11.35;3.50;;;13.80;99.90;;;;;;5096832;28;20377;-68
2021/10/16 12:31:06;;;;;;;13.88;3.63;;;13.80;99.90;;;;;;5096761;28;20424;-68
2021/10/16 12:33:32;;;;;;;12.95;3.80;;;13.70;99.90;;;;;;5096654;28;20031;-67
2021/10/16 12:35:59;;;;;;;13.82;3.50;;;13.50;99.90;;;;;;5096421;28;20107;-69
2021/10/16 12:38:26;;;;;;;10.90;3.00;;;13.60;99.90;;;;;;5095192;28;20024;-67
2021/10/16 12:40:52;;;;;;;12.35;2.97;;;13.50;99.90;;;;;;5096278;28;20411;-68
2021/10/16 12:43:28;;;;;;;12.13;3.00;;;13.60;99.90;;;;;;5095384;28;20020;-68
2021/10/16 12:45:55;;;;;;;12.32;3.90;;;13.60;99.90;;;;;;5096416;28;20024;-68
2021/10/16 12:48:33;;;;;;;9.18;3.03;;;13.50;99.90;;;;;;5096183;28;20044;-67